Terminal Aerodrome Forecast
Issued by NWS

Home | Current Version | Previous Version | Text Only | Print | Product List | Glossary On
Versions: 1 2 3 4 5 6 7 8 9 10 11 12 13 14 15
000
FTUS45 KABQ 051700 RRA
TAFAEG
TAF
KAEG 051741Z 0518/0618 23010G18KT P6SM SCT030 BKN050
     FM052000 24013G23KT P6SM VCSH SCT050 BKN100
     FM052200 26017G27KT P6SM VCTS BKN050CB
      TEMPO 0522/0601 VRB25G35KT 6SM TSRA OVC035CB
     FM060200 28012KT P6SM SCT025 BKN050
      TEMPO 0608/0612 4SM BR OVC015
     FM061300 25008KT P6SM SCT040 BKN070=

USA.gov is the U.S. government's official web portal to all federal, state and local government web resources and services.